createdAt,value
2023-04-09T00:00:23.939Z,0.50
2023-04-09T00:02:50.839Z,0.50
2023-04-09T00:05:17.866Z,0.40
2023-04-09T00:07:44.804Z,0.40
2023-04-09T00:10:11.868Z,0.40
2023-04-09T00:12:38.787Z,0.30
2023-04-09T00:15:06.384Z,0.40
2023-04-09T00:17:33.267Z,0.30
2023-04-09T00:20:00.422Z,0.30
2023-04-09T00:22:27.292Z,0.30
2023-04-09T00:24:54.120Z,0.40
2023-04-09T00:27:21.089Z,0.40
2023-04-09T00:29:47.937Z,0.40
2023-04-09T00:32:14.847Z,0.40
2023-04-09T00:34:41.785Z,0.40
2023-04-09T00:37:08.653Z,0.40
2023-04-09T00:39:35.427Z,0.40
2023-04-09T00:42:03.075Z,0.40
2023-04-09T00:44:30.762Z,0.40
2023-04-09T00:47:00.620Z,0.40
2023-04-09T00:49:27.922Z,0.40
2023-04-09T00:51:55.195Z,0.60
2023-04-09T00:54:22.153Z,0.60
2023-04-09T00:56:48.969Z,0.60
2023-04-09T00:59:16.223Z,0.60
2023-04-09T01:01:43.110Z,0.60
2023-04-09T01:04:10.362Z,0.60
2023-04-09T01:06:51.528Z,0.60
2023-04-09T01:09:33.666Z,0.60
2023-04-09T01:12:22.849Z,0.60
2023-04-09T01:15:07.134Z,0.60
2023-04-09T01:17:49.309Z,0.70
2023-04-09T01:20:48.051Z,0.70
2023-04-09T01:23:14.818Z,0.70
2023-04-09T01:26:03.266Z,0.70
2023-04-09T01:28:44.761Z,0.70
2023-04-09T01:31:14.884Z,0.70
2023-04-09T01:33:42.830Z,0.70
2023-04-09T01:36:10.781Z,0.70
2023-04-09T01:38:41.505Z,0.70
2023-04-09T01:41:12.096Z,0.70
2023-04-09T01:43:39.370Z,0.70
2023-04-09T01:46:06.219Z,0.70
2023-04-09T01:48:33.778Z,0.80
2023-04-09T01:51:01.412Z,0.90
2023-04-09T01:53:28.574Z,1.00
2023-04-09T01:55:58.667Z,1.00
2023-04-09T01:58:26.070Z,1.00
2023-04-09T02:00:59.980Z,1.00
2023-04-09T02:03:33.862Z,1.10
2023-04-09T02:06:10.280Z,1.10
2023-04-09T02:08:37.713Z,1.10
2023-04-09T02:11:06.758Z,1.10
2023-04-09T02:13:34.954Z,1.30
2023-04-09T02:16:04.392Z,1.30
2023-04-09T02:18:31.471Z,1.30
2023-04-09T02:20:59.412Z,1.20
2023-04-09T02:23:29.797Z,1.10
2023-04-09T02:25:56.826Z,1.10
2023-04-09T02:28:23.687Z,1.10
2023-04-09T02:30:51.789Z,1.10
2023-04-09T02:33:18.620Z,1.10
2023-04-09T02:35:45.556Z,1.10
2023-04-09T02:38:16.085Z,1.10
2023-04-09T02:40:43.266Z,1.10
2023-04-09T02:43:10.655Z,1.10
2023-04-09T02:45:37.944Z,1.10
2023-04-09T02:48:05.170Z,1.10
2023-04-09T02:50:35.311Z,1.20
2023-04-09T02:53:02.781Z,1.30
2023-04-09T02:55:29.742Z,1.30
2023-04-09T02:57:56.691Z,1.40
2023-04-09T03:00:23.476Z,1.40
2023-04-09T03:02:50.670Z,1.40
2023-04-09T03:05:17.592Z,1.40
2023-04-09T03:07:44.535Z,1.40
2023-04-09T03:10:11.468Z,1.50
2023-04-09T03:12:38.252Z,1.50
2023-04-09T03:15:05.825Z,1.50
2023-04-09T03:17:32.726Z,1.40
2023-04-09T03:19:59.696Z,1.40
2023-04-09T03:22:38.320Z,1.40
2023-04-09T03:25:12.006Z,1.40
2023-04-09T03:27:39.098Z,1.30
2023-04-09T03:30:06.514Z,1.30
2023-04-09T03:32:39.813Z,1.30
2023-04-09T03:35:08.277Z,1.30
2023-04-09T03:37:36.039Z,1.30
2023-04-09T03:40:03.920Z,1.40
2023-04-09T03:42:31.772Z,1.30
2023-04-09T03:44:58.839Z,1.30
2023-04-09T03:47:33.270Z,1.40
2023-04-09T03:50:00.499Z,1.40
2023-04-09T03:52:33.023Z,1.40
2023-04-09T03:55:07.022Z,1.40
2023-04-09T03:57:33.913Z,1.40
2023-04-09T04:00:01.427Z,1.50
2023-04-09T04:02:38.748Z,1.50
2023-04-09T04:05:08.643Z,1.50
2023-04-09T04:07:44.041Z,1.50
2023-04-09T04:10:15.430Z,1.60
2023-04-09T04:12:45.672Z,1.60
2023-04-09T04:15:20.122Z,1.60
2023-04-09T04:17:52.817Z,1.60
2023-04-09T04:20:41.104Z,1.60
2023-04-09T04:23:12.243Z,1.60
2023-04-09T04:25:47.483Z,1.70
2023-04-09T04:28:18.623Z,1.70
2023-04-09T04:30:46.020Z,1.70
2023-04-09T04:33:13.377Z,1.70
2023-04-09T04:35:52.534Z,1.70
2023-04-09T04:38:36.614Z,1.70
2023-04-09T04:41:07.914Z,1.70
2023-04-09T04:43:38.661Z,1.70
2023-04-09T04:46:06.292Z,1.70
2023-04-09T04:48:33.751Z,1.70
2023-04-09T04:51:02.049Z,1.70
2023-04-09T04:53:39.541Z,1.80
2023-04-09T04:56:14.806Z,1.80
2023-04-09T04:58:52.940Z,1.80
2023-04-09T05:01:20.923Z,1.80
2023-04-09T05:03:48.311Z,1.90
2023-04-09T05:06:29.744Z,1.90
2023-04-09T05:08:58.274Z,2.00
2023-04-09T05:11:28.095Z,2.00
2023-04-09T05:13:55.530Z,2.00
2023-04-09T05:16:23.502Z,2.10
2023-04-09T05:18:58.506Z,2.10
2023-04-09T05:21:25.831Z,2.20
2023-04-09T05:23:54.550Z,2.20
2023-04-09T05:26:22.646Z,2.30
2023-04-09T05:28:53.880Z,2.30
2023-04-09T05:31:22.579Z,2.40
2023-04-09T05:34:06.272Z,2.40
2023-04-09T05:36:40.149Z,2.40
2023-04-09T05:39:07.160Z,2.50
2023-04-09T05:41:34.018Z,2.50
2023-04-09T05:44:29.218Z,2.60
2023-04-09T05:47:05.440Z,2.70
2023-04-09T05:49:39.830Z,2.70
2023-04-09T05:52:10.968Z,2.80
2023-04-09T05:54:38.050Z,2.90
2023-04-09T05:57:07.448Z,3.00
2023-04-09T05:59:37.214Z,3.10
2023-04-09T06:02:04.099Z,3.20
2023-04-09T06:04:32.171Z,3.20
2023-04-09T06:07:00.510Z,3.20
2023-04-09T06:09:30.282Z,3.30
2023-04-09T06:11:57.835Z,3.30
2023-04-09T06:14:24.784Z,3.30
2023-04-09T06:16:51.579Z,3.40
2023-04-09T06:19:18.978Z,3.40
2023-04-09T06:21:46.081Z,3.40
2023-04-09T06:24:13.003Z,3.50
2023-04-09T06:26:39.950Z,3.50
2023-04-09T06:29:07.018Z,3.50
2023-04-09T06:31:34.457Z,3.60
2023-04-09T06:34:01.427Z,3.60
2023-04-09T06:36:28.346Z,3.60
2023-04-09T06:38:55.437Z,3.70
2023-04-09T06:41:23.335Z,3.80
2023-04-09T06:43:50.658Z,3.80
2023-04-09T06:46:20.204Z,3.90
2023-04-09T06:48:47.695Z,4.00
2023-04-09T06:51:15.075Z,4.10
2023-04-09T06:53:42.396Z,4.20
2023-04-09T06:56:09.643Z,4.30
2023-04-09T06:58:36.794Z,4.40
2023-04-09T07:01:03.888Z,4.40
2023-04-09T07:03:31.152Z,4.40
2023-04-09T07:05:58.914Z,4.40
2023-04-09T07:08:25.994Z,4.40
2023-04-09T07:10:52.910Z,4.40
2023-04-09T07:13:19.820Z,4.50
2023-04-09T07:15:46.638Z,4.40
2023-04-09T07:18:13.457Z,4.40
2023-04-09T07:20:40.257Z,4.40
2023-04-09T07:23:07.103Z,4.40
2023-04-09T07:25:34.049Z,4.40
2023-04-09T07:28:00.906Z,4.40
2023-04-09T07:30:27.740Z,4.40
2023-04-09T07:32:55.155Z,4.40
2023-04-09T07:35:22.130Z,4.40
2023-04-09T07:37:49.046Z,4.40
2023-04-09T07:40:16.227Z,4.40
2023-04-09T07:42:43.056Z,4.50
2023-04-09T07:45:10.208Z,4.60
2023-04-09T07:47:38.300Z,4.80
2023-04-09T07:50:06.011Z,4.90
2023-04-09T07:52:32.853Z,5.00
2023-04-09T07:54:59.673Z,5.10
2023-04-09T07:57:27.598Z,5.20
2023-04-09T07:59:55.502Z,5.40
2023-04-09T08:02:23.926Z,5.50
2023-04-09T08:04:51.251Z,5.40
2023-04-09T08:07:18.212Z,5.10
2023-04-09T08:09:45.046Z,4.90
2023-04-09T08:12:11.905Z,4.90
2023-04-09T08:14:38.790Z,4.80
2023-04-09T08:17:05.808Z,4.70
2023-04-09T08:19:32.796Z,4.80
2023-04-09T08:21:59.664Z,4.90
2023-04-09T08:24:26.686Z,5.00
2023-04-09T08:26:54.500Z,5.10
2023-04-09T08:29:21.460Z,5.20
2023-04-09T08:31:48.545Z,5.00
2023-04-09T08:34:17.385Z,5.00
2023-04-09T08:36:47.709Z,5.00
2023-04-09T08:39:15.415Z,5.10
2023-04-09T08:41:44.299Z,5.20
2023-04-09T08:44:11.447Z,5.30
2023-04-09T08:46:38.321Z,5.40
2023-04-09T08:49:05.220Z,5.40
2023-04-09T08:51:32.034Z,5.40
2023-04-09T08:54:03.704Z,5.40
2023-04-09T08:56:31.428Z,5.50
2023-04-09T08:58:58.669Z,5.60
2023-04-09T09:01:33.297Z,5.70
2023-04-09T09:04:08.657Z,5.80
2023-04-09T09:06:36.528Z,5.80
2023-04-09T09:09:08.709Z,5.80
2023-04-09T09:11:50.989Z,5.90
2023-04-09T09:14:21.050Z,6.00
2023-04-09T09:16:57.675Z,6.10
2023-04-09T09:19:24.687Z,6.10
2023-04-09T09:21:59.288Z,6.10
2023-04-09T09:24:26.534Z,6.00
2023-04-09T09:26:58.795Z,6.00
2023-04-09T09:29:26.232Z,5.90
2023-04-09T09:31:54.933Z,5.70
2023-04-09T09:34:23.728Z,5.70
2023-04-09T09:36:50.661Z,5.70
2023-04-09T09:39:17.984Z,5.60
2023-04-09T09:41:46.133Z,5.70
2023-04-09T09:44:30.433Z,5.80
2023-04-09T09:46:58.642Z,5.80
2023-04-09T09:49:25.463Z,5.80
2023-04-09T09:51:55.609Z,5.90
2023-04-09T09:54:25.498Z,6.10
2023-04-09T09:56:55.893Z,6.20
2023-04-09T09:59:31.009Z,6.30
2023-04-09T10:02:04.440Z,6.30
2023-04-09T10:04:38.172Z,6.30
2023-04-09T10:07:07.016Z,6.30
2023-04-09T10:09:39.688Z,6.30
2023-04-09T10:12:08.768Z,6.30
2023-04-09T10:14:36.410Z,6.10
2023-04-09T10:17:04.397Z,5.80
2023-04-09T10:19:33.350Z,5.80
2023-04-09T10:22:09.826Z,5.80
2023-04-09T10:24:36.964Z,6.00
2023-04-09T10:27:16.724Z,6.00
2023-04-09T10:29:48.510Z,5.90
2023-04-09T10:32:28.314Z,5.90
2023-04-09T10:34:59.525Z,5.80
2023-04-09T10:37:28.031Z,5.70
2023-04-09T10:39:55.144Z,5.70
2023-04-09T10:42:35.689Z,5.90
2023-04-09T10:45:14.440Z,5.80
2023-04-09T10:47:43.430Z,5.90
2023-04-09T10:50:21.590Z,6.00
2023-04-09T10:52:53.792Z,6.10
2023-04-09T10:55:41.845Z,5.80
2023-04-09T10:58:13.621Z,5.70
2023-04-09T11:00:45.563Z,5.80
2023-04-09T11:03:15.536Z,5.80
2023-04-09T11:05:44.393Z,5.90
2023-04-09T11:08:12.911Z,5.80
2023-04-09T11:10:42.063Z,5.80
2023-04-09T11:13:13.620Z,5.80
2023-04-09T11:15:41.201Z,5.90
2023-04-09T11:18:09.925Z,5.90
2023-04-09T11:20:37.036Z,5.90
2023-04-09T11:23:03.927Z,5.90
2023-04-09T11:25:32.959Z,5.90
2023-04-09T11:28:02.485Z,5.90
2023-04-09T11:30:29.335Z,6.00
2023-04-09T11:32:56.331Z,6.00
2023-04-09T11:35:23.867Z,6.10
2023-04-09T11:37:52.290Z,6.00
2023-04-09T11:40:20.275Z,6.00
2023-04-09T11:42:49.937Z,6.10
2023-04-09T11:45:18.101Z,6.20
2023-04-09T11:47:46.606Z,6.30
2023-04-09T11:50:15.562Z,6.40
2023-04-09T11:52:43.403Z,6.40
2023-04-09T11:55:10.909Z,6.40
2023-04-09T11:57:43.012Z,6.40
2023-04-09T12:00:20.322Z,6.40
2023-04-09T12:02:51.611Z,6.30
2023-04-09T12:05:23.617Z,6.40
2023-04-09T12:07:56.208Z,6.60
2023-04-09T12:10:27.997Z,6.70
2023-04-09T12:12:55.242Z,6.50
2023-04-09T12:15:24.293Z,6.40
2023-04-09T12:17:55.944Z,6.50
2023-04-09T12:20:46.606Z,6.50
2023-04-09T12:23:14.391Z,6.60
2023-04-09T12:25:43.334Z,6.70
2023-04-09T12:28:13.777Z,6.80
2023-04-09T12:30:40.689Z,6.80
2023-04-09T12:33:10.296Z,6.90
2023-04-09T12:35:38.118Z,6.90
2023-04-09T12:38:05.370Z,6.90
2023-04-09T12:40:32.234Z,6.90
2023-04-09T12:42:59.189Z,7.00
2023-04-09T12:45:26.392Z,7.20
2023-04-09T12:47:53.494Z,7.40
2023-04-09T12:50:20.458Z,7.70
2023-04-09T12:52:47.482Z,7.80
2023-04-09T12:55:15.065Z,8.00
2023-04-09T12:57:47.343Z,8.10
2023-04-09T13:00:14.982Z,8.20
2023-04-09T13:02:42.346Z,8.20
2023-04-09T13:05:09.472Z,8.30
2023-04-09T13:07:36.354Z,8.30
2023-04-09T13:10:03.611Z,8.30
2023-04-09T13:12:30.624Z,8.20
2023-04-09T13:14:59.080Z,8.30
2023-04-09T13:17:26.153Z,8.30
2023-04-09T13:19:53.630Z,8.20
2023-04-09T13:22:20.597Z,8.20
2023-04-09T13:24:47.404Z,8.20
2023-04-09T13:27:14.811Z,7.80
2023-04-09T13:29:41.616Z,7.90
2023-04-09T13:32:10.615Z,7.50
2023-04-09T13:34:39.669Z,7.60
2023-04-09T13:37:07.142Z,7.60
2023-04-09T13:39:34.130Z,7.60
2023-04-09T13:42:07.247Z,7.60
2023-04-09T13:44:42.321Z,7.40
2023-04-09T13:47:11.250Z,7.30
2023-04-09T13:49:38.510Z,7.30
2023-04-09T13:52:05.898Z,7.50
2023-04-09T13:54:33.732Z,7.40
2023-04-09T13:57:00.929Z,7.30
2023-04-09T13:59:27.879Z,7.10
2023-04-09T14:01:54.837Z,6.90
2023-04-09T14:04:21.911Z,7.00
2023-04-09T14:06:48.740Z,7.00
2023-04-09T14:09:16.203Z,7.10
2023-04-09T14:11:43.002Z,7.10
2023-04-09T14:14:10.709Z,7.00
2023-04-09T14:16:37.623Z,6.90
2023-04-09T14:19:04.523Z,7.00
2023-04-09T14:21:32.036Z,6.90
2023-04-09T14:23:58.975Z,6.90
2023-04-09T14:26:26.758Z,6.90
2023-04-09T14:28:53.856Z,7.30
2023-04-09T14:31:21.550Z,7.40
2023-04-09T14:33:49.009Z,7.50
2023-04-09T14:36:16.659Z,7.60
2023-04-09T14:38:43.679Z,7.70
2023-04-09T14:41:10.537Z,7.80
2023-04-09T14:43:37.420Z,8.10
2023-04-09T14:46:06.394Z,8.40
2023-04-09T14:48:33.362Z,8.60
2023-04-09T14:51:00.237Z,8.70
2023-04-09T14:53:27.009Z,9.00
2023-04-09T14:55:53.823Z,9.10
2023-04-09T14:58:20.849Z,9.30
2023-04-09T15:00:47.751Z,9.60
2023-04-09T15:03:14.978Z,9.80
2023-04-09T15:05:41.923Z,10.00
2023-04-09T15:08:08.727Z,9.90
2023-04-09T15:10:37.044Z,9.90
2023-04-09T15:13:04.008Z,9.60
2023-04-09T15:15:31.233Z,9.30
2023-04-09T15:17:58.146Z,9.40
2023-04-09T15:20:24.981Z,9.50
2023-04-09T15:22:51.824Z,9.60
2023-04-09T15:25:18.712Z,9.60
2023-04-09T15:27:46.897Z,9.70
2023-04-09T15:30:13.793Z,9.90
2023-04-09T15:32:40.810Z,10.20
2023-04-09T15:35:08.283Z,10.20
2023-04-09T15:37:35.416Z,10.30
2023-04-09T15:40:03.915Z,10.40
2023-04-09T15:42:30.819Z,10.40
2023-04-09T15:44:57.590Z,10.50
2023-04-09T15:47:24.417Z,10.20
2023-04-09T15:49:51.467Z,10.00
2023-04-09T15:52:18.293Z,10.00
2023-04-09T15:54:45.236Z,10.20
2023-04-09T15:57:12.047Z,10.00
2023-04-09T15:59:38.912Z,10.10
2023-04-09T16:02:06.085Z,10.10
2023-04-09T16:04:32.931Z,10.30
2023-04-09T16:06:59.908Z,10.30
2023-04-09T16:09:26.679Z,10.20
2023-04-09T16:11:53.538Z,10.20
2023-04-09T16:14:20.442Z,10.20
2023-04-09T16:16:49.910Z,10.20
2023-04-09T16:19:17.834Z,10.00
2023-04-09T16:21:45.604Z,9.60
2023-04-09T16:24:13.188Z,9.50
2023-04-09T16:26:44.102Z,9.30
2023-04-09T16:29:11.512Z,9.00
2023-04-09T16:31:39.336Z,8.80
2023-04-09T16:34:06.160Z,8.70
2023-04-09T16:36:36.865Z,8.50
2023-04-09T16:39:06.697Z,8.20
2023-04-09T16:41:34.983Z,7.90
2023-04-09T16:44:04.086Z,7.60
2023-04-09T16:46:31.283Z,7.40
2023-04-09T16:48:58.122Z,7.20
2023-04-09T16:51:25.011Z,7.00
2023-04-09T16:53:51.903Z,6.90
2023-04-09T16:56:18.850Z,6.80
2023-04-09T16:58:46.585Z,6.80
2023-04-09T17:01:13.479Z,7.00
2023-04-09T17:03:40.437Z,7.00
2023-04-09T17:06:07.398Z,6.90
2023-04-09T17:08:35.307Z,6.90
2023-04-09T17:11:02.507Z,6.80
2023-04-09T17:13:31.679Z,6.60
2023-04-09T17:15:58.593Z,6.50
2023-04-09T17:18:25.562Z,6.20
2023-04-09T17:20:52.645Z,6.20
2023-04-09T17:23:19.582Z,6.10
2023-04-09T17:25:47.152Z,5.90
2023-04-09T17:28:14.255Z,5.90
2023-04-09T17:30:42.830Z,5.80
2023-04-09T17:33:09.845Z,5.70
2023-04-09T17:35:36.645Z,5.60
2023-04-09T17:38:03.705Z,5.50
2023-04-09T17:40:30.729Z,5.40
2023-04-09T17:42:57.570Z,5.30
2023-04-09T17:45:24.521Z,5.20
2023-04-09T17:47:51.353Z,5.10
2023-04-09T17:50:18.302Z,5.00
2023-04-09T17:52:45.196Z,4.90
2023-04-09T17:55:13.002Z,4.80
2023-04-09T17:57:40.904Z,4.70
2023-04-09T18:00:08.796Z,4.70
2023-04-09T18:02:46.086Z,4.60
2023-04-09T18:05:13.178Z,4.50
2023-04-09T18:07:40.072Z,4.40
2023-04-09T18:10:07.200Z,4.40
2023-04-09T18:12:34.017Z,4.30
2023-04-09T18:15:00.848Z,4.30
2023-04-09T18:17:27.682Z,4.20
2023-04-09T18:19:58.214Z,4.10
2023-04-09T18:22:26.139Z,4.00
2023-04-09T18:24:53.196Z,4.00
2023-04-09T18:27:21.275Z,3.90
2023-04-09T18:29:50.958Z,3.80
2023-04-09T18:32:19.606Z,3.70
2023-04-09T18:34:47.717Z,3.70
2023-04-09T18:37:15.266Z,3.60
2023-04-09T18:39:42.133Z,3.50
2023-04-09T18:42:09.087Z,3.50
2023-04-09T18:44:38.960Z,3.50
2023-04-09T18:47:09.111Z,3.40
2023-04-09T18:49:36.800Z,3.40
2023-04-09T18:52:06.138Z,3.30
2023-04-09T18:54:35.006Z,3.30
2023-04-09T18:57:04.180Z,3.20
2023-04-09T18:59:35.122Z,3.20
2023-04-09T19:02:06.049Z,3.10
2023-04-09T19:04:39.824Z,3.10
2023-04-09T19:07:07.332Z,3.00
2023-04-09T19:09:34.743Z,3.00
2023-04-09T19:12:02.009Z,3.00
2023-04-09T19:14:28.998Z,2.90
2023-04-09T19:16:55.846Z,2.90
2023-04-09T19:19:23.362Z,2.90
2023-04-09T19:21:50.212Z,2.90
2023-04-09T19:24:17.023Z,2.80
2023-04-09T19:26:43.841Z,2.80
2023-04-09T19:29:10.787Z,2.70
2023-04-09T19:31:37.827Z,2.70
2023-04-09T19:34:06.282Z,2.60
2023-04-09T19:36:33.986Z,2.60
2023-04-09T19:39:01.185Z,2.60
2023-04-09T19:41:28.066Z,2.50
2023-04-09T19:43:55.054Z,2.50
2023-04-09T19:46:21.955Z,2.40
2023-04-09T19:48:48.904Z,2.40
2023-04-09T19:51:20.070Z,2.30
2023-04-09T19:53:47.909Z,2.30
2023-04-09T19:56:15.059Z,2.20
2023-04-09T19:58:43.434Z,2.20
2023-04-09T20:01:10.537Z,2.10
2023-04-09T20:03:37.511Z,2.10
2023-04-09T20:06:09.371Z,2.00
2023-04-09T20:08:37.839Z,2.00
2023-04-09T20:11:05.010Z,2.00
2023-04-09T20:13:31.790Z,1.90
2023-04-09T20:15:58.716Z,1.90
2023-04-09T20:18:25.814Z,1.90
2023-04-09T20:20:53.212Z,1.80
2023-04-09T20:23:20.075Z,1.90
2023-04-09T20:25:46.880Z,1.80
2023-04-09T20:28:13.683Z,1.80
2023-04-09T20:30:40.511Z,1.80
2023-04-09T20:33:07.498Z,1.80
2023-04-09T20:35:36.270Z,1.70
2023-04-09T20:38:03.304Z,1.70
2023-04-09T20:40:31.955Z,1.70
2023-04-09T20:42:59.475Z,1.60
2023-04-09T20:45:26.337Z,1.60
2023-04-09T20:47:53.343Z,1.50
2023-04-09T20:50:20.265Z,1.50
2023-04-09T20:52:47.627Z,1.50
2023-04-09T20:55:14.634Z,1.50
2023-04-09T20:57:41.563Z,1.50
2023-04-09T21:00:08.971Z,1.40
2023-04-09T21:02:35.933Z,1.40
2023-04-09T21:05:11.663Z,1.40
2023-04-09T21:07:46.272Z,1.40
2023-04-09T21:10:13.277Z,1.40
2023-04-09T21:12:40.350Z,1.50
2023-04-09T21:15:07.765Z,1.50
2023-04-09T21:17:34.658Z,1.60
2023-04-09T21:20:01.599Z,1.70
2023-04-09T21:22:28.475Z,1.70
2023-04-09T21:24:56.265Z,1.80
2023-04-09T21:27:23.219Z,1.70
2023-04-09T21:29:49.999Z,1.70
2023-04-09T21:32:17.465Z,1.60
2023-04-09T21:34:44.240Z,1.50
2023-04-09T21:37:11.096Z,1.60
2023-04-09T21:39:38.528Z,1.50
2023-04-09T21:42:07.190Z,1.50
2023-04-09T21:44:34.176Z,1.50
2023-04-09T21:47:01.716Z,1.40
2023-04-09T21:49:28.581Z,1.40
2023-04-09T21:51:55.782Z,1.40
2023-04-09T21:54:22.598Z,1.40
2023-04-09T21:56:49.418Z,1.40
2023-04-09T21:59:16.269Z,1.40
2023-04-09T22:01:43.093Z,1.30
2023-04-09T22:04:10.172Z,1.20
2023-04-09T22:06:37.076Z,1.10
2023-04-09T22:09:04.337Z,1.10
2023-04-09T22:11:31.548Z,1.00
2023-04-09T22:13:58.663Z,1.00
2023-04-09T22:16:26.387Z,0.90
2023-04-09T22:18:54.449Z,0.80
2023-04-09T22:21:22.762Z,0.80
2023-04-09T22:23:49.580Z,0.70
2023-04-09T22:26:16.894Z,0.70
2023-04-09T22:28:43.710Z,0.70
2023-04-09T22:31:10.530Z,0.70
2023-04-09T22:33:37.349Z,0.70
2023-04-09T22:36:04.357Z,0.70
2023-04-09T22:38:31.270Z,0.60
2023-04-09T22:40:58.131Z,0.60
2023-04-09T22:43:24.950Z,0.60
2023-04-09T22:45:54.971Z,0.60
2023-04-09T22:48:22.826Z,0.60
2023-04-09T22:50:50.436Z,0.60
2023-04-09T22:53:21.759Z,0.60
2023-04-09T22:55:51.250Z,0.50
2023-04-09T22:58:18.832Z,0.50
2023-04-09T23:00:47.132Z,0.50
2023-04-09T23:03:14.150Z,0.40
2023-04-09T23:05:41.255Z,0.40
2023-04-09T23:08:08.164Z,0.40
2023-04-09T23:10:35.844Z,0.40
2023-04-09T23:13:02.861Z,0.30
2023-04-09T23:15:29.689Z,0.20
2023-04-09T23:17:56.751Z,0.20
2023-04-09T23:20:23.894Z,0.20
2023-04-09T23:22:51.114Z,0.20
2023-04-09T23:25:18.164Z,0.20
2023-04-09T23:27:46.594Z,0.10
2023-04-09T23:30:16.990Z,0.10
2023-04-09T23:32:51.649Z,0.00
2023-04-09T23:35:20.367Z,0.00
2023-04-09T23:37:48.952Z,0.00
2023-04-09T23:40:18.036Z,-0.10
2023-04-09T23:42:45.764Z,-0.10
2023-04-09T23:45:12.580Z,-0.10
2023-04-09T23:47:39.450Z,-0.10
2023-04-09T23:50:07.927Z,-0.20
2023-04-09T23:52:38.749Z,-0.10
2023-04-09T23:55:09.556Z,-0.20
2023-04-09T23:57:36.459Z,-0.20
